sensor_id;sensor_type;location;lat;lon;timestamp;temperature;humidity
14192;DHT22;7177;48.572;7.838;2023-07-31T00:00:32;16.70;99.90
14192;DHT22;7177;48.572;7.838;2023-07-31T00:02:57;16.60;99.90
14192;DHT22;7177;48.572;7.838;2023-07-31T00:05:22;16.60;99.90
14192;DHT22;7177;48.572;7.838;2023-07-31T00:07:48;16.60;99.90
14192;DHT22;7177;48.572;7.838;2023-07-31T00:10:13;16.60;99.90
14192;DHT22;7177;48.572;7.838;2023-07-31T00:12:40;16.60;99.90
14192;DHT22;7177;48.572;7.838;2023-07-31T00:15:07;16.60;99.90
14192;DHT22;7177;48.572;7.838;2023-07-31T00:17:33;16.60;99.90
14192;DHT22;7177;48.572;7.838;2023-07-31T00:19:58;16.60;99.90
14192;DHT22;7177;48.572;7.838;2023-07-31T00:22:24;16.60;99.90
14192;DHT22;7177;48.572;7.838;2023-07-31T00:24:49;16.40;99.90
14192;DHT22;7177;48.572;7.838;2023-07-31T00:27:15;16.30;99.90
14192;DHT22;7177;48.572;7.838;2023-07-31T00:29:40;16.20;99.90
14192;DHT22;7177;48.572;7.838;2023-07-31T00:32:06;16.10;99.90
14192;DHT22;7177;48.572;7.838;2023-07-31T00:34:32;16.10;99.90
14192;DHT22;7177;48.572;7.838;2023-07-31T00:36:57;16.10;99.90
14192;DHT22;7177;48.572;7.838;2023-07-31T00:39:23;16.00;99.90
14192;DHT22;7177;48.572;7.838;2023-07-31T00:41:48;16.00;99.90
14192;DHT22;7177;48.572;7.838;2023-07-31T00:44:14;15.80;99.90
14192;DHT22;7177;48.572;7.838;2023-07-31T00:46:39;15.70;99.90
14192;DHT22;7177;48.572;7.838;2023-07-31T00:49:05;15.60;99.90
14192;DHT22;7177;48.572;7.838;2023-07-31T00:51:31;15.60;99.90
14192;DHT22;7177;48.572;7.838;2023-07-31T00:53:57;15.60;99.90
14192;DHT22;7177;48.572;7.838;2023-07-31T00:56:24;15.60;99.90
14192;DHT22;7177;48.572;7.838;2023-07-31T00:58:50;15.70;99.90
14192;DHT22;7177;48.572;7.838;2023-07-31T01:01:16;15.70;99.90
14192;DHT22;7177;48.572;7.838;2023-07-31T01:03:41;15.80;99.90
14192;DHT22;7177;48.572;7.838;2023-07-31T01:06:14;15.80;99.90
14192;DHT22;7177;48.572;7.838;2023-07-31T01:09:03;15.90;99.90
14192;DHT22;7177;48.572;7.838;2023-07-31T01:11:34;16.00;99.90
14192;DHT22;7177;48.572;7.838;2023-07-31T01:14:01;16.00;99.90
14192;DHT22;7177;48.572;7.838;2023-07-31T01:16:27;16.00;99.90
14192;DHT22;7177;48.572;7.838;2023-07-31T01:18:52;16.00;99.90
14192;DHT22;7177;48.572;7.838;2023-07-31T01:24:27;15.90;99.90
14192;DHT22;7177;48.572;7.838;2023-07-31T01:27:02;15.90;99.90
14192;DHT22;7177;48.572;7.838;2023-07-31T01:29:38;15.90;99.90
14192;DHT22;7177;48.572;7.838;2023-07-31T01:32:09;15.80;99.90
14192;DHT22;7177;48.572;7.838;2023-07-31T01:34:36;15.80;99.90
14192;DHT22;7177;48.572;7.838;2023-07-31T01:37:02;15.80;99.90
14192;DHT22;7177;48.572;7.838;2023-07-31T01:39:28;15.80;99.90
14192;DHT22;7177;48.572;7.838;2023-07-31T01:41:53;15.80;99.90
14192;DHT22;7177;48.572;7.838;2023-07-31T01:44:19;15.70;99.90
14192;DHT22;7177;48.572;7.838;2023-07-31T01:46:44;15.70;99.90
14192;DHT22;7177;48.572;7.838;2023-07-31T01:49:10;15.70;99.90
14192;DHT22;7177;48.572;7.838;2023-07-31T01:51:36;15.70;99.90
14192;DHT22;7177;48.572;7.838;2023-07-31T01:54:01;15.70;99.90
14192;DHT22;7177;48.572;7.838;2023-07-31T01:56:27;15.70;99.90
14192;DHT22;7177;48.572;7.838;2023-07-31T01:58:53;15.60;99.90
14192;DHT22;7177;48.572;7.838;2023-07-31T02:01:18;15.50;99.90
14192;DHT22;7177;48.572;7.838;2023-07-31T02:03:44;15.50;99.90
14192;DHT22;7177;48.572;7.838;2023-07-31T02:06:09;15.50;99.90
14192;DHT22;7177;48.572;7.838;2023-07-31T02:11:01;15.40;99.90
14192;DHT22;7177;48.572;7.838;2023-07-31T02:13:26;15.30;99.90
14192;DHT22;7177;48.572;7.838;2023-07-31T02:15:52;15.30;99.90
14192;DHT22;7177;48.572;7.838;2023-07-31T02:18:18;15.30;99.90
14192;DHT22;7177;48.572;7.838;2023-07-31T02:20:43;15.20;99.90
14192;DHT22;7177;48.572;7.838;2023-07-31T02:23:11;15.20;99.90
14192;DHT22;7177;48.572;7.838;2023-07-31T02:25:37;15.20;99.90
14192;DHT22;7177;48.572;7.838;2023-07-31T02:28:02;15.10;99.90
14192;DHT22;7177;48.572;7.838;2023-07-31T02:30:28;15.10;99.90
14192;DHT22;7177;48.572;7.838;2023-07-31T02:32:53;15.10;99.90
14192;DHT22;7177;48.572;7.838;2023-07-31T02:35:19;15.10;99.90
14192;DHT22;7177;48.572;7.838;2023-07-31T02:37:44;15.10;99.90
14192;DHT22;7177;48.572;7.838;2023-07-31T02:40:10;15.00;99.90
14192;DHT22;7177;48.572;7.838;2023-07-31T02:42:36;15.00;99.90
14192;DHT22;7177;48.572;7.838;2023-07-31T02:45:01;15.10;99.90
14192;DHT22;7177;48.572;7.838;2023-07-31T02:47:27;15.10;99.90
14192;DHT22;7177;48.572;7.838;2023-07-31T02:49:52;15.10;99.90
14192;DHT22;7177;48.572;7.838;2023-07-31T02:52:18;15.10;99.90
14192;DHT22;7177;48.572;7.838;2023-07-31T02:54:43;15.20;99.90
14192;DHT22;7177;48.572;7.838;2023-07-31T02:57:09;15.30;99.90
14192;DHT22;7177;48.572;7.838;2023-07-31T02:59:34;15.30;99.90
14192;DHT22;7177;48.572;7.838;2023-07-31T03:02:00;15.30;99.90
14192;DHT22;7177;48.572;7.838;2023-07-31T03:04:25;15.30;99.90
14192;DHT22;7177;48.572;7.838;2023-07-31T03:06:51;15.40;99.90
14192;DHT22;7177;48.572;7.838;2023-07-31T03:09:16;15.40;99.90
14192;DHT22;7177;48.572;7.838;2023-07-31T03:11:42;15.40;99.90
14192;DHT22;7177;48.572;7.838;2023-07-31T03:14:07;15.40;99.90
14192;DHT22;7177;48.572;7.838;2023-07-31T03:16:33;15.40;99.90
14192;DHT22;7177;48.572;7.838;2023-07-31T03:18:58;15.40;99.90
14192;DHT22;7177;48.572;7.838;2023-07-31T03:21:24;15.30;99.90
14192;DHT22;7177;48.572;7.838;2023-07-31T03:23:49;15.30;99.90
14192;DHT22;7177;48.572;7.838;2023-07-31T03:26:15;15.30;99.90
14192;DHT22;7177;48.572;7.838;2023-07-31T03:28:40;15.20;99.90
14192;DHT22;7177;48.572;7.838;2023-07-31T03:31:06;15.20;99.90
14192;DHT22;7177;48.572;7.838;2023-07-31T03:33:33;15.20;99.90
14192;DHT22;7177;48.572;7.838;2023-07-31T03:35:59;15.20;99.90
14192;DHT22;7177;48.572;7.838;2023-07-31T03:41:26;15.20;99.90
14192;DHT22;7177;48.572;7.838;2023-07-31T03:43:51;15.30;99.90
14192;DHT22;7177;48.572;7.838;2023-07-31T03:46:17;15.30;99.90
14192;DHT22;7177;48.572;7.838;2023-07-31T03:48:43;15.20;99.90
14192;DHT22;7177;48.572;7.838;2023-07-31T03:51:08;15.20;99.90
14192;DHT22;7177;48.572;7.838;2023-07-31T03:53:34;15.20;99.90
14192;DHT22;7177;48.572;7.838;2023-07-31T03:55:59;15.10;99.90
14192;DHT22;7177;48.572;7.838;2023-07-31T03:58:25;15.20;99.90
14192;DHT22;7177;48.572;7.838;2023-07-31T04:00:50;15.10;99.90
14192;DHT22;7177;48.572;7.838;2023-07-31T04:03:16;15.10;99.90
14192;DHT22;7177;48.572;7.838;2023-07-31T04:05:42;15.10;99.90
14192;DHT22;7177;48.572;7.838;2023-07-31T04:08:07;15.10;99.90
14192;DHT22;7177;48.572;7.838;2023-07-31T04:10:33;15.40;99.90
14192;DHT22;7177;48.572;7.838;2023-07-31T04:12:59;15.50;99.90
14192;DHT22;7177;48.572;7.838;2023-07-31T04:15:26;15.50;99.90
14192;DHT22;7177;48.572;7.838;2023-07-31T04:17:51;15.50;99.90
14192;DHT22;7177;48.572;7.838;2023-07-31T04:20:17;15.60;99.90
14192;DHT22;7177;48.572;7.838;2023-07-31T04:22:42;15.60;99.90
14192;DHT22;7177;48.572;7.838;2023-07-31T04:25:08;15.70;99.90
14192;DHT22;7177;48.572;7.838;2023-07-31T04:27:33;15.50;99.90
14192;DHT22;7177;48.572;7.838;2023-07-31T04:29:59;15.70;99.90
14192;DHT22;7177;48.572;7.838;2023-07-31T04:32:24;15.70;99.90
14192;DHT22;7177;48.572;7.838;2023-07-31T04:34:50;15.70;99.90
14192;DHT22;7177;48.572;7.838;2023-07-31T04:37:15;15.80;99.90
14192;DHT22;7177;48.572;7.838;2023-07-31T04:39:41;15.70;99.90
14192;DHT22;7177;48.572;7.838;2023-07-31T04:42:06;15.70;99.90
14192;DHT22;7177;48.572;7.838;2023-07-31T04:44:32;15.70;99.90
14192;DHT22;7177;48.572;7.838;2023-07-31T04:46:57;15.60;99.90
14192;DHT22;7177;48.572;7.838;2023-07-31T04:49:23;15.60;99.90
14192;DHT22;7177;48.572;7.838;2023-07-31T04:51:49;15.70;99.90
14192;DHT22;7177;48.572;7.838;2023-07-31T04:54:14;15.80;99.90
14192;DHT22;7177;48.572;7.838;2023-07-31T04:56:42;15.80;99.90
14192;DHT22;7177;48.572;7.838;2023-07-31T04:59:08;15.80;99.90
14192;DHT22;7177;48.572;7.838;2023-07-31T05:01:34;15.80;99.90
14192;DHT22;7177;48.572;7.838;2023-07-31T05:04:00;15.80;99.90
14192;DHT22;7177;48.572;7.838;2023-07-31T05:06:29;15.80;99.90
14192;DHT22;7177;48.572;7.838;2023-07-31T05:08:54;16.00;99.90
14192;DHT22;7177;48.572;7.838;2023-07-31T05:11:20;15.90;99.90
14192;DHT22;7177;48.572;7.838;2023-07-31T05:13:45;15.90;99.90
14192;DHT22;7177;48.572;7.838;2023-07-31T05:16:11;15.90;99.90
14192;DHT22;7177;48.572;7.838;2023-07-31T05:18:36;15.90;99.90
14192;DHT22;7177;48.572;7.838;2023-07-31T05:21:02;16.10;99.90
14192;DHT22;7177;48.572;7.838;2023-07-31T05:23:27;16.00;99.90
14192;DHT22;7177;48.572;7.838;2023-07-31T05:25:53;16.00;99.90
14192;DHT22;7177;48.572;7.838;2023-07-31T05:28:18;16.00;99.90
14192;DHT22;7177;48.572;7.838;2023-07-31T05:30:44;16.00;99.90
14192;DHT22;7177;48.572;7.838;2023-07-31T05:33:09;16.00;99.90
14192;DHT22;7177;48.572;7.838;2023-07-31T05:35:35;16.00;99.90
14192;DHT22;7177;48.572;7.838;2023-07-31T05:38:00;16.00;99.90
14192;DHT22;7177;48.572;7.838;2023-07-31T05:40:26;16.10;99.90
14192;DHT22;7177;48.572;7.838;2023-07-31T05:42:52;16.10;99.90
14192;DHT22;7177;48.572;7.838;2023-07-31T05:45:17;16.20;99.90
14192;DHT22;7177;48.572;7.838;2023-07-31T05:47:43;16.20;99.90
14192;DHT22;7177;48.572;7.838;2023-07-31T05:50:09;16.30;99.90
14192;DHT22;7177;48.572;7.838;2023-07-31T05:52:34;16.30;99.90
14192;DHT22;7177;48.572;7.838;2023-07-31T05:55:00;16.40;99.90
14192;DHT22;7177;48.572;7.838;2023-07-31T05:57:26;16.50;99.90
14192;DHT22;7177;48.572;7.838;2023-07-31T05:59:52;16.50;99.90
14192;DHT22;7177;48.572;7.838;2023-07-31T06:02:18;16.50;99.90
14192;DHT22;7177;48.572;7.838;2023-07-31T06:04:44;16.40;99.90
14192;DHT22;7177;48.572;7.838;2023-07-31T06:07:09;16.50;99.90
14192;DHT22;7177;48.572;7.838;2023-07-31T06:09:36;16.50;99.90
14192;DHT22;7177;48.572;7.838;2023-07-31T06:12:01;16.50;99.90
14192;DHT22;7177;48.572;7.838;2023-07-31T06:14:27;16.50;99.90
14192;DHT22;7177;48.572;7.838;2023-07-31T06:16:52;16.50;99.90
14192;DHT22;7177;48.572;7.838;2023-07-31T06:19:18;16.50;99.90
14192;DHT22;7177;48.572;7.838;2023-07-31T06:21:44;16.60;99.90
14192;DHT22;7177;48.572;7.838;2023-07-31T06:24:09;16.70;99.90
14192;DHT22;7177;48.572;7.838;2023-07-31T06:26:35;16.80;99.90
14192;DHT22;7177;48.572;7.838;2023-07-31T06:29:00;16.90;99.90
14192;DHT22;7177;48.572;7.838;2023-07-31T06:31:26;17.00;99.90
14192;DHT22;7177;48.572;7.838;2023-07-31T06:33:52;17.00;99.90
14192;DHT22;7177;48.572;7.838;2023-07-31T06:36:18;17.10;99.90
14192;DHT22;7177;48.572;7.838;2023-07-31T06:38:43;17.20;99.90
14192;DHT22;7177;48.572;7.838;2023-07-31T06:41:09;17.20;99.90
14192;DHT22;7177;48.572;7.838;2023-07-31T06:43:36;17.30;99.90
14192;DHT22;7177;48.572;7.838;2023-07-31T06:46:07;17.30;99.90
14192;DHT22;7177;48.572;7.838;2023-07-31T06:48:33;17.30;99.90
14192;DHT22;7177;48.572;7.838;2023-07-31T06:51:00;17.40;99.90
14192;DHT22;7177;48.572;7.838;2023-07-31T06:53:26;17.50;99.90
14192;DHT22;7177;48.572;7.838;2023-07-31T06:55:51;17.70;99.90
14192;DHT22;7177;48.572;7.838;2023-07-31T06:58:17;17.70;99.90
14192;DHT22;7177;48.572;7.838;2023-07-31T07:00:43;17.80;99.90
14192;DHT22;7177;48.572;7.838;2023-07-31T07:03:08;17.80;99.90
14192;DHT22;7177;48.572;7.838;2023-07-31T07:05:34;17.80;99.90
14192;DHT22;7177;48.572;7.838;2023-07-31T07:07:59;17.80;99.90
14192;DHT22;7177;48.572;7.838;2023-07-31T07:10:25;17.80;99.90
14192;DHT22;7177;48.572;7.838;2023-07-31T07:12:51;17.90;99.90
14192;DHT22;7177;48.572;7.838;2023-07-31T07:15:16;17.90;99.90
14192;DHT22;7177;48.572;7.838;2023-07-31T07:17:42;18.00;99.90
14192;DHT22;7177;48.572;7.838;2023-07-31T07:20:08;18.10;99.90
14192;DHT22;7177;48.572;7.838;2023-07-31T07:22:33;18.30;99.90
14192;DHT22;7177;48.572;7.838;2023-07-31T07:24:59;18.50;99.90
14192;DHT22;7177;48.572;7.838;2023-07-31T07:27:24;18.50;99.90
14192;DHT22;7177;48.572;7.838;2023-07-31T07:29:51;18.40;99.90
14192;DHT22;7177;48.572;7.838;2023-07-31T07:32:17;18.30;99.90
14192;DHT22;7177;48.572;7.838;2023-07-31T07:34:43;18.20;99.90
14192;DHT22;7177;48.572;7.838;2023-07-31T07:37:09;18.20;99.90
14192;DHT22;7177;48.572;7.838;2023-07-31T07:39:34;18.30;99.90
14192;DHT22;7177;48.572;7.838;2023-07-31T07:42:00;18.30;99.90
14192;DHT22;7177;48.572;7.838;2023-07-31T07:44:25;18.30;99.90
14192;DHT22;7177;48.572;7.838;2023-07-31T07:46:52;18.30;99.90
14192;DHT22;7177;48.572;7.838;2023-07-31T07:49:17;18.40;99.90
14192;DHT22;7177;48.572;7.838;2023-07-31T07:51:43;18.40;99.90
14192;DHT22;7177;48.572;7.838;2023-07-31T07:54:08;18.40;99.90
14192;DHT22;7177;48.572;7.838;2023-07-31T07:56:34;18.50;99.90
14192;DHT22;7177;48.572;7.838;2023-07-31T07:59:01;18.60;99.90
14192;DHT22;7177;48.572;7.838;2023-07-31T08:01:27;18.60;99.90
14192;DHT22;7177;48.572;7.838;2023-07-31T08:03:52;18.70;99.90
14192;DHT22;7177;48.572;7.838;2023-07-31T08:06:18;18.80;99.90
14192;DHT22;7177;48.572;7.838;2023-07-31T08:08:44;19.00;99.90
14192;DHT22;7177;48.572;7.838;2023-07-31T08:11:09;19.10;99.90
14192;DHT22;7177;48.572;7.838;2023-07-31T08:13:35;19.20;99.90
14192;DHT22;7177;48.572;7.838;2023-07-31T08:16:02;19.20;99.90
14192;DHT22;7177;48.572;7.838;2023-07-31T08:18:28;19.20;99.90
14192;DHT22;7177;48.572;7.838;2023-07-31T08:20:53;19.20;99.90
14192;DHT22;7177;48.572;7.838;2023-07-31T08:23:19;19.20;99.90
14192;DHT22;7177;48.572;7.838;2023-07-31T08:25:45;19.20;99.90
14192;DHT22;7177;48.572;7.838;2023-07-31T08:28:10;19.40;99.90
14192;DHT22;7177;48.572;7.838;2023-07-31T08:30:36;19.70;99.90
14192;DHT22;7177;48.572;7.838;2023-07-31T08:33:01;20.00;99.90
14192;DHT22;7177;48.572;7.838;2023-07-31T08:35:28;20.10;99.90
14192;DHT22;7177;48.572;7.838;2023-07-31T08:37:53;20.10;99.90
14192;DHT22;7177;48.572;7.838;2023-07-31T08:40:19;20.10;99.90
14192;DHT22;7177;48.572;7.838;2023-07-31T08:42:49;20.20;99.90
14192;DHT22;7177;48.572;7.838;2023-07-31T08:45:16;20.30;99.90
14192;DHT22;7177;48.572;7.838;2023-07-31T08:47:47;20.50;99.90
14192;DHT22;7177;48.572;7.838;2023-07-31T08:50:14;20.80;99.90
14192;DHT22;7177;48.572;7.838;2023-07-31T08:52:40;20.90;99.90
14192;DHT22;7177;48.572;7.838;2023-07-31T08:55:06;20.90;99.90
14192;DHT22;7177;48.572;7.838;2023-07-31T08:57:34;21.10;99.90
14192;DHT22;7177;48.572;7.838;2023-07-31T09:00:00;21.60;99.90
14192;DHT22;7177;48.572;7.838;2023-07-31T09:02:34;22.20;99.90
14192;DHT22;7177;48.572;7.838;2023-07-31T09:05:02;22.80;99.90
14192;DHT22;7177;48.572;7.838;2023-07-31T09:07:28;23.20;99.90
14192;DHT22;7177;48.572;7.838;2023-07-31T09:09:54;23.80;99.90
14192;DHT22;7177;48.572;7.838;2023-07-31T09:12:20;23.80;99.90
14192;DHT22;7177;48.572;7.838;2023-07-31T09:14:47;23.90;99.90
14192;DHT22;7177;48.572;7.838;2023-07-31T09:17:12;23.90;99.90
14192;DHT22;7177;48.572;7.838;2023-07-31T09:19:38;23.80;99.90
14192;DHT22;7177;48.572;7.838;2023-07-31T09:22:05;23.70;99.90
14192;DHT22;7177;48.572;7.838;2023-07-31T09:24:32;24.00;99.90
14192;DHT22;7177;48.572;7.838;2023-07-31T09:27:00;23.60;99.90
14192;DHT22;7177;48.572;7.838;2023-07-31T09:29:27;22.80;99.90
14192;DHT22;7177;48.572;7.838;2023-07-31T09:31:54;22.70;99.90
14192;DHT22;7177;48.572;7.838;2023-07-31T09:34:20;22.90;99.90
14192;DHT22;7177;48.572;7.838;2023-07-31T09:36:53;23.30;99.90
14192;DHT22;7177;48.572;7.838;2023-07-31T09:39:18;23.30;99.90
14192;DHT22;7177;48.572;7.838;2023-07-31T09:41:53;23.30;99.90
14192;DHT22;7177;48.572;7.838;2023-07-31T09:44:19;23.10;99.90
14192;DHT22;7177;48.572;7.838;2023-07-31T09:46:45;23.10;99.90
14192;DHT22;7177;48.572;7.838;2023-07-31T09:49:13;23.00;99.90
14192;DHT22;7177;48.572;7.838;2023-07-31T09:51:39;22.90;99.90
14192;DHT22;7177;48.572;7.838;2023-07-31T09:54:12;22.90;99.90
14192;DHT22;7177;48.572;7.838;2023-07-31T09:56:44;22.80;99.90
14192;DHT22;7177;48.572;7.838;2023-07-31T09:59:18;22.80;99.90
14192;DHT22;7177;48.572;7.838;2023-07-31T10:01:45;22.80;99.90
14192;DHT22;7177;48.572;7.838;2023-07-31T10:04:12;22.70;99.90
14192;DHT22;7177;48.572;7.838;2023-07-31T10:06:39;22.70;99.90
14192;DHT22;7177;48.572;7.838;2023-07-31T10:09:07;22.70;99.90
14192;DHT22;7177;48.572;7.838;2023-07-31T10:11:41;22.60;99.90
14192;DHT22;7177;48.572;7.838;2023-07-31T10:14:09;22.80;99.90
14192;DHT22;7177;48.572;7.838;2023-07-31T10:16:38;22.50;99.90
14192;DHT22;7177;48.572;7.838;2023-07-31T10:19:05;22.10;99.90
14192;DHT22;7177;48.572;7.838;2023-07-31T10:21:31;21.90;99.90
14192;DHT22;7177;48.572;7.838;2023-07-31T10:24:02;21.40;99.90
14192;DHT22;7177;48.572;7.838;2023-07-31T10:26:28;21.40;99.90
14192;DHT22;7177;48.572;7.838;2023-07-31T10:28:54;21.40;99.90
14192;DHT22;7177;48.572;7.838;2023-07-31T10:31:21;21.40;99.90
14192;DHT22;7177;48.572;7.838;2023-07-31T10:33:47;21.40;99.90
14192;DHT22;7177;48.572;7.838;2023-07-31T10:36:19;21.40;99.90
14192;DHT22;7177;48.572;7.838;2023-07-31T10:38:48;21.40;99.90
14192;DHT22;7177;48.572;7.838;2023-07-31T10:41:14;21.50;99.90
14192;DHT22;7177;48.572;7.838;2023-07-31T10:43:39;21.40;99.90
14192;DHT22;7177;48.572;7.838;2023-07-31T10:46:12;21.30;99.90
14192;DHT22;7177;48.572;7.838;2023-07-31T10:48:40;21.40;99.90
14192;DHT22;7177;48.572;7.838;2023-07-31T10:51:11;21.40;99.90
14192;DHT22;7177;48.572;7.838;2023-07-31T10:53:38;21.40;99.90
14192;DHT22;7177;48.572;7.838;2023-07-31T10:56:05;21.80;99.90
14192;DHT22;7177;48.572;7.838;2023-07-31T10:58:31;21.80;99.90
14192;DHT22;7177;48.572;7.838;2023-07-31T11:01:04;21.90;99.90
14192;DHT22;7177;48.572;7.838;2023-07-31T11:03:47;22.20;99.90
14192;DHT22;7177;48.572;7.838;2023-07-31T11:06:15;22.30;99.90
14192;DHT22;7177;48.572;7.838;2023-07-31T11:08:51;22.70;99.90
14192;DHT22;7177;48.572;7.838;2023-07-31T11:11:18;22.70;99.90
14192;DHT22;7177;48.572;7.838;2023-07-31T11:13:51;23.10;99.90
14192;DHT22;7177;48.572;7.838;2023-07-31T11:16:19;24.10;99.90
14192;DHT22;7177;48.572;7.838;2023-07-31T11:18:46;24.10;99.90
14192;DHT22;7177;48.572;7.838;2023-07-31T11:21:15;24.30;99.90
14192;DHT22;7177;48.572;7.838;2023-07-31T11:23:41;24.60;99.90
14192;DHT22;7177;48.572;7.838;2023-07-31T11:26:07;24.60;99.90
14192;DHT22;7177;48.572;7.838;2023-07-31T11:28:33;24.60;99.90
14192;DHT22;7177;48.572;7.838;2023-07-31T11:31:00;24.40;99.90
14192;DHT22;7177;48.572;7.838;2023-07-31T11:33:26;24.50;99.90
14192;DHT22;7177;48.572;7.838;2023-07-31T11:35:51;24.50;99.90
14192;DHT22;7177;48.572;7.838;2023-07-31T11:38:30;24.50;99.90
14192;DHT22;7177;48.572;7.838;2023-07-31T11:40:59;24.60;99.90
14192;DHT22;7177;48.572;7.838;2023-07-31T11:43:25;24.20;99.90
14192;DHT22;7177;48.572;7.838;2023-07-31T11:45:53;24.20;99.90
14192;DHT22;7177;48.572;7.838;2023-07-31T11:48:24;24.00;99.90
14192;DHT22;7177;48.572;7.838;2023-07-31T11:50:51;24.60;99.90
14192;DHT22;7177;48.572;7.838;2023-07-31T11:53:26;24.70;99.90
14192;DHT22;7177;48.572;7.838;2023-07-31T11:55:52;25.00;99.90
14192;DHT22;7177;48.572;7.838;2023-07-31T11:58:18;25.30;99.90
14192;DHT22;7177;48.572;7.838;2023-07-31T12:00:44;25.60;99.90
14192;DHT22;7177;48.572;7.838;2023-07-31T12:03:11;26.30;99.90
14192;DHT22;7177;48.572;7.838;2023-07-31T12:05:37;26.30;99.90
14192;DHT22;7177;48.572;7.838;2023-07-31T12:08:09;26.20;99.90
14192;DHT22;7177;48.572;7.838;2023-07-31T12:10:34;26.30;99.90
14192;DHT22;7177;48.572;7.838;2023-07-31T12:13:02;26.30;99.90
14192;DHT22;7177;48.572;7.838;2023-07-31T12:15:43;26.00;99.90
14192;DHT22;7177;48.572;7.838;2023-07-31T12:18:10;25.80;99.90
14192;DHT22;7177;48.572;7.838;2023-07-31T12:20:40;25.30;99.90
14192;DHT22;7177;48.572;7.838;2023-07-31T12:23:07;25.10;99.90
14192;DHT22;7177;48.572;7.838;2023-07-31T12:25:37;24.50;99.90
14192;DHT22;7177;48.572;7.838;2023-07-31T12:28:06;24.40;99.90
14192;DHT22;7177;48.572;7.838;2023-07-31T12:30:37;24.40;99.90
14192;DHT22;7177;48.572;7.838;2023-07-31T12:33:05;24.10;99.90
14192;DHT22;7177;48.572;7.838;2023-07-31T12:35:51;24.00;99.90
14192;DHT22;7177;48.572;7.838;2023-07-31T12:38:17;24.00;99.90
14192;DHT22;7177;48.572;7.838;2023-07-31T12:40:42;24.10;99.90
14192;DHT22;7177;48.572;7.838;2023-07-31T12:43:08;24.10;99.90
14192;DHT22;7177;48.572;7.838;2023-07-31T12:45:34;24.50;99.90
14192;DHT22;7177;48.572;7.838;2023-07-31T12:48:00;24.50;99.90
14192;DHT22;7177;48.572;7.838;2023-07-31T12:50:26;24.60;99.90
14192;DHT22;7177;48.572;7.838;2023-07-31T12:52:55;24.60;99.90
14192;DHT22;7177;48.572;7.838;2023-07-31T12:55:22;24.60;99.90
14192;DHT22;7177;48.572;7.838;2023-07-31T12:57:47;24.50;99.90
14192;DHT22;7177;48.572;7.838;2023-07-31T13:00:13;24.30;99.90
14192;DHT22;7177;48.572;7.838;2023-07-31T13:02:39;24.30;99.90
14192;DHT22;7177;48.572;7.838;2023-07-31T13:05:04;24.20;99.90
14192;DHT22;7177;48.572;7.838;2023-07-31T13:07:30;24.30;99.90
14192;DHT22;7177;48.572;7.838;2023-07-31T13:09:56;24.20;99.90
14192;DHT22;7177;48.572;7.838;2023-07-31T13:12:21;24.60;99.90
14192;DHT22;7177;48.572;7.838;2023-07-31T13:14:47;25.00;99.90
14192;DHT22;7177;48.572;7.838;2023-07-31T13:17:12;25.30;99.90
14192;DHT22;7177;48.572;7.838;2023-07-31T13:19:38;25.40;99.90
14192;DHT22;7177;48.572;7.838;2023-07-31T13:22:03;25.80;99.90
14192;DHT22;7177;48.572;7.838;2023-07-31T13:24:29;26.20;99.90
14192;DHT22;7177;48.572;7.838;2023-07-31T13:26:56;26.00;99.90
14192;DHT22;7177;48.572;7.838;2023-07-31T13:29:21;25.60;99.90
14192;DHT22;7177;48.572;7.838;2023-07-31T13:31:47;25.40;99.90
14192;DHT22;7177;48.572;7.838;2023-07-31T13:34:13;25.30;99.90
14192;DHT22;7177;48.572;7.838;2023-07-31T13:36:38;25.10;99.90
14192;DHT22;7177;48.572;7.838;2023-07-31T13:39:04;25.50;99.90
14192;DHT22;7177;48.572;7.838;2023-07-31T13:41:29;25.60;99.90
14192;DHT22;7177;48.572;7.838;2023-07-31T13:43:55;25.60;99.90
14192;DHT22;7177;48.572;7.838;2023-07-31T13:46:20;25.80;99.90
14192;DHT22;7177;48.572;7.838;2023-07-31T13:48:46;26.00;99.90
14192;DHT22;7177;48.572;7.838;2023-07-31T13:51:11;26.10;99.90
14192;DHT22;7177;48.572;7.838;2023-07-31T13:53:37;25.90;99.90
14192;DHT22;7177;48.572;7.838;2023-07-31T13:56:02;25.80;99.90
14192;DHT22;7177;48.572;7.838;2023-07-31T13:58:28;25.60;99.90
14192;DHT22;7177;48.572;7.838;2023-07-31T14:00:54;25.40;99.90
14192;DHT22;7177;48.572;7.838;2023-07-31T14:03:19;25.30;99.90
14192;DHT22;7177;48.572;7.838;2023-07-31T14:05:45;24.90;99.90
14192;DHT22;7177;48.572;7.838;2023-07-31T14:08:10;24.60;99.90
14192;DHT22;7177;48.572;7.838;2023-07-31T14:10:36;24.50;99.90
14192;DHT22;7177;48.572;7.838;2023-07-31T14:13:01;24.30;99.90
14192;DHT22;7177;48.572;7.838;2023-07-31T14:15:27;24.30;99.90
14192;DHT22;7177;48.572;7.838;2023-07-31T14:17:52;24.30;99.90
14192;DHT22;7177;48.572;7.838;2023-07-31T14:20:18;24.30;99.90
14192;DHT22;7177;48.572;7.838;2023-07-31T14:22:44;24.40;99.90
14192;DHT22;7177;48.572;7.838;2023-07-31T14:25:09;24.40;99.90
14192;DHT22;7177;48.572;7.838;2023-07-31T14:27:36;24.40;99.90
14192;DHT22;7177;48.572;7.838;2023-07-31T14:30:02;24.40;99.90
14192;DHT22;7177;48.572;7.838;2023-07-31T14:32:27;24.50;99.90
14192;DHT22;7177;48.572;7.838;2023-07-31T14:34:53;24.60;99.90
14192;DHT22;7177;48.572;7.838;2023-07-31T14:37:19;24.70;99.90
14192;DHT22;7177;48.572;7.838;2023-07-31T14:39:45;24.70;99.90
14192;DHT22;7177;48.572;7.838;2023-07-31T14:42:10;24.90;99.90
14192;DHT22;7177;48.572;7.838;2023-07-31T14:44:36;25.10;99.90
14192;DHT22;7177;48.572;7.838;2023-07-31T14:47:01;25.30;99.90
14192;DHT22;7177;48.572;7.838;2023-07-31T14:49:27;25.50;99.90
14192;DHT22;7177;48.572;7.838;2023-07-31T14:51:54;25.60;99.90
14192;DHT22;7177;48.572;7.838;2023-07-31T14:54:19;25.60;99.90
14192;DHT22;7177;48.572;7.838;2023-07-31T14:56:45;25.60;99.90
14192;DHT22;7177;48.572;7.838;2023-07-31T14:59:11;25.70;99.90
14192;DHT22;7177;48.572;7.838;2023-07-31T15:01:37;25.70;99.90
14192;DHT22;7177;48.572;7.838;2023-07-31T15:04:02;25.60;99.90
14192;DHT22;7177;48.572;7.838;2023-07-31T15:06:28;25.80;99.90
14192;DHT22;7177;48.572;7.838;2023-07-31T15:08:54;25.80;99.90
14192;DHT22;7177;48.572;7.838;2023-07-31T15:11:19;26.00;99.90
14192;DHT22;7177;48.572;7.838;2023-07-31T15:13:45;26.40;99.90
14192;DHT22;7177;48.572;7.838;2023-07-31T15:16:10;26.50;99.90
14192;DHT22;7177;48.572;7.838;2023-07-31T15:18:36;26.30;99.90
14192;DHT22;7177;48.572;7.838;2023-07-31T15:21:01;26.10;99.90
14192;DHT22;7177;48.572;7.838;2023-07-31T15:23:27;25.90;99.90
14192;DHT22;7177;48.572;7.838;2023-07-31T15:25:52;26.00;99.90
14192;DHT22;7177;48.572;7.838;2023-07-31T15:28:18;26.00;99.90
14192;DHT22;7177;48.572;7.838;2023-07-31T15:30:44;25.90;99.90
14192;DHT22;7177;48.572;7.838;2023-07-31T15:33:10;25.80;99.90
14192;DHT22;7177;48.572;7.838;2023-07-31T15:35:35;25.60;99.90
14192;DHT22;7177;48.572;7.838;2023-07-31T15:38:01;25.50;99.90
14192;DHT22;7177;48.572;7.838;2023-07-31T15:40:26;25.20;99.90
14192;DHT22;7177;48.572;7.838;2023-07-31T15:42:52;25.20;99.90
14192;DHT22;7177;48.572;7.838;2023-07-31T15:45:17;25.20;99.90
14192;DHT22;7177;48.572;7.838;2023-07-31T15:47:43;25.10;99.90